sensor_id;sensor_type;location;lat;lon;timestamp;P1;durP1;ratioP1;P2;durP2;ratioP2
28170;SDS011;15458;53.346;-1.688;2023-05-13T00:01:33;11.73;;;7.78;;
28170;SDS011;15458;53.346;-1.688;2023-05-13T00:04:06;16.25;;;9.15;;
28170;SDS011;15458;53.346;-1.688;2023-05-13T00:06:36;12.75;;;9.00;;
28170;SDS011;15458;53.346;-1.688;2023-05-13T00:09:04;14.02;;;9.20;;
28170;SDS011;15458;53.346;-1.688;2023-05-13T00:11:33;23.65;;;9.73;;
28170;SDS011;15458;53.346;-1.688;2023-05-13T00:14:26;16.40;;;11.00;;
28170;SDS011;15458;53.346;-1.688;2023-05-13T00:16:54;19.83;;;11.60;;
28170;SDS011;15458;53.346;-1.688;2023-05-13T00:19:26;16.38;;;11.27;;
28170;SDS011;15458;53.346;-1.688;2023-05-13T00:24:53;16.83;;;10.90;;
28170;SDS011;15458;53.346;-1.688;2023-05-13T00:27:23;20.05;;;11.35;;
28170;SDS011;15458;53.346;-1.688;2023-05-13T00:29:51;18.33;;;11.75;;
28170;SDS011;15458;53.346;-1.688;2023-05-13T00:32:18;17.45;;;11.02;;
28170;SDS011;15458;53.346;-1.688;2023-05-13T00:34:44;17.88;;;10.50;;
28170;SDS011;15458;53.346;-1.688;2023-05-13T00:37:10;16.80;;;10.52;;
28170;SDS011;15458;53.346;-1.688;2023-05-13T00:39:38;21.85;;;11.85;;
28170;SDS011;15458;53.346;-1.688;2023-05-13T00:42:04;19.75;;;13.23;;
28170;SDS011;15458;53.346;-1.688;2023-05-13T00:44:29;22.77;;;12.60;;
28170;SDS011;15458;53.346;-1.688;2023-05-13T00:46:56;22.23;;;13.18;;
28170;SDS011;15458;53.346;-1.688;2023-05-13T00:49:26;20.75;;;12.68;;
28170;SDS011;15458;53.346;-1.688;2023-05-13T00:51:58;24.25;;;14.02;;
28170;SDS011;15458;53.346;-1.688;2023-05-13T00:54:26;23.73;;;13.77;;
28170;SDS011;15458;53.346;-1.688;2023-05-13T00:56:53;24.50;;;13.98;;
28170;SDS011;15458;53.346;-1.688;2023-05-13T00:59:25;19.85;;;13.48;;
28170;SDS011;15458;53.346;-1.688;2023-05-13T01:10:46;23.52;;;13.80;;
28170;SDS011;15458;53.346;-1.688;2023-05-13T01:13:21;18.92;;;12.05;;
28170;SDS011;15458;53.346;-1.688;2023-05-13T01:16:00;18.55;;;11.02;;
28170;SDS011;15458;53.346;-1.688;2023-05-13T01:18:45;16.23;;;11.30;;
28170;SDS011;15458;53.346;-1.688;2023-05-13T01:21:40;15.10;;;10.00;;
28170;SDS011;15458;53.346;-1.688;2023-05-13T01:24:17;17.90;;;10.93;;
28170;SDS011;15458;53.346;-1.688;2023-05-13T01:27:04;14.93;;;11.10;;
28170;SDS011;15458;53.346;-1.688;2023-05-13T01:29:31;15.68;;;10.10;;
28170;SDS011;15458;53.346;-1.688;2023-05-13T01:31:57;16.45;;;10.15;;
28170;SDS011;15458;53.346;-1.688;2023-05-13T01:34:29;17.55;;;11.07;;
28170;SDS011;15458;53.346;-1.688;2023-05-13T01:37:27;16.75;;;11.57;;
28170;SDS011;15458;53.346;-1.688;2023-05-13T01:40:01;15.15;;;10.23;;
28170;SDS011;15458;53.346;-1.688;2023-05-13T01:42:50;17.87;;;11.77;;
28170;SDS011;15458;53.346;-1.688;2023-05-13T01:45:16;21.98;;;12.02;;
28170;SDS011;15458;53.346;-1.688;2023-05-13T01:47:42;15.45;;;10.55;;
28170;SDS011;15458;53.346;-1.688;2023-05-13T01:50:08;15.13;;;10.27;;
28170;SDS011;15458;53.346;-1.688;2023-05-13T01:52:34;16.77;;;10.10;;
28170;SDS011;15458;53.346;-1.688;2023-05-13T01:55:00;15.65;;;10.30;;
28170;SDS011;15458;53.346;-1.688;2023-05-13T01:57:26;14.77;;;9.95;;
28170;SDS011;15458;53.346;-1.688;2023-05-13T01:59:52;17.27;;;10.30;;
28170;SDS011;15458;53.346;-1.688;2023-05-13T02:02:17;14.82;;;10.25;;
28170;SDS011;15458;53.346;-1.688;2023-05-13T02:04:45;15.07;;;10.30;;
28170;SDS011;15458;53.346;-1.688;2023-05-13T02:07:10;11.05;;;8.43;;
28170;SDS011;15458;53.346;-1.688;2023-05-13T02:09:36;12.27;;;9.35;;
28170;SDS011;15458;53.346;-1.688;2023-05-13T02:12:03;12.73;;;8.60;;
28170;SDS011;15458;53.346;-1.688;2023-05-13T02:14:29;10.95;;;8.75;;
28170;SDS011;15458;53.346;-1.688;2023-05-13T02:16:55;14.55;;;9.18;;
28170;SDS011;15458;53.346;-1.688;2023-05-13T02:19:21;12.23;;;9.00;;
28170;SDS011;15458;53.346;-1.688;2023-05-13T02:21:47;12.70;;;9.02;;
28170;SDS011;15458;53.346;-1.688;2023-05-13T02:24:13;11.05;;;8.60;;
28170;SDS011;15458;53.346;-1.688;2023-05-13T02:26:39;14.27;;;7.95;;
28170;SDS011;15458;53.346;-1.688;2023-05-13T02:29:05;10.73;;;7.55;;
28170;SDS011;15458;53.346;-1.688;2023-05-13T02:31:31;9.45;;;7.30;;
28170;SDS011;15458;53.346;-1.688;2023-05-13T02:33:57;8.23;;;7.00;;
28170;SDS011;15458;53.346;-1.688;2023-05-13T02:36:23;9.88;;;7.40;;
28170;SDS011;15458;53.346;-1.688;2023-05-13T02:38:49;9.98;;;6.82;;
28170;SDS011;15458;53.346;-1.688;2023-05-13T02:41:16;12.15;;;7.50;;
28170;SDS011;15458;53.346;-1.688;2023-05-13T02:43:42;8.50;;;6.93;;
28170;SDS011;15458;53.346;-1.688;2023-05-13T02:46:09;7.38;;;6.18;;
28170;SDS011;15458;53.346;-1.688;2023-05-13T02:48:35;9.13;;;6.97;;
28170;SDS011;15458;53.346;-1.688;2023-05-13T02:51:01;8.60;;;6.82;;
28170;SDS011;15458;53.346;-1.688;2023-05-13T02:53:27;11.30;;;6.97;;
28170;SDS011;15458;53.346;-1.688;2023-05-13T02:55:56;12.73;;;7.97;;
28170;SDS011;15458;53.346;-1.688;2023-05-13T02:58:23;12.73;;;8.43;;
28170;SDS011;15458;53.346;-1.688;2023-05-13T03:00:51;11.03;;;7.00;;
28170;SDS011;15458;53.346;-1.688;2023-05-13T03:03:19;14.27;;;8.10;;
28170;SDS011;15458;53.346;-1.688;2023-05-13T03:05:55;10.68;;;8.10;;
28170;SDS011;15458;53.346;-1.688;2023-05-13T03:08:28;10.73;;;8.15;;
28170;SDS011;15458;53.346;-1.688;2023-05-13T03:10:54;12.55;;;7.70;;
28170;SDS011;15458;53.346;-1.688;2023-05-13T03:13:21;12.05;;;8.35;;
28170;SDS011;15458;53.346;-1.688;2023-05-13T03:15:47;12.52;;;7.93;;
28170;SDS011;15458;53.346;-1.688;2023-05-13T03:18:13;10.65;;;8.57;;
28170;SDS011;15458;53.346;-1.688;2023-05-13T03:20:41;11.95;;;8.15;;
28170;SDS011;15458;53.346;-1.688;2023-05-13T03:23:07;11.77;;;7.75;;
28170;SDS011;15458;53.346;-1.688;2023-05-13T03:25:34;13.95;;;8.25;;
28170;SDS011;15458;53.346;-1.688;2023-05-13T03:28:01;12.80;;;8.88;;
28170;SDS011;15458;53.346;-1.688;2023-05-13T03:30:29;14.13;;;9.93;;
28170;SDS011;15458;53.346;-1.688;2023-05-13T03:32:58;10.63;;;8.55;;
28170;SDS011;15458;53.346;-1.688;2023-05-13T03:35:24;15.30;;;8.48;;
28170;SDS011;15458;53.346;-1.688;2023-05-13T03:37:59;13.80;;;8.82;;
28170;SDS011;15458;53.346;-1.688;2023-05-13T03:40:32;12.27;;;8.35;;
28170;SDS011;15458;53.346;-1.688;2023-05-13T03:42:59;12.68;;;9.02;;
28170;SDS011;15458;53.346;-1.688;2023-05-13T03:45:26;10.80;;;8.57;;
28170;SDS011;15458;53.346;-1.688;2023-05-13T03:47:52;13.45;;;8.82;;
28170;SDS011;15458;53.346;-1.688;2023-05-13T03:50:22;14.27;;;8.30;;
28170;SDS011;15458;53.346;-1.688;2023-05-13T03:52:49;15.45;;;8.60;;
28170;SDS011;15458;53.346;-1.688;2023-05-13T03:55:18;12.18;;;7.97;;
28170;SDS011;15458;53.346;-1.688;2023-05-13T03:57:53;10.68;;;8.18;;
28170;SDS011;15458;53.346;-1.688;2023-05-13T04:00:19;10.60;;;7.95;;
28170;SDS011;15458;53.346;-1.688;2023-05-13T04:02:46;12.20;;;8.60;;
28170;SDS011;15458;53.346;-1.688;2023-05-13T04:05:12;11.80;;;8.40;;
28170;SDS011;15458;53.346;-1.688;2023-05-13T04:07:41;11.90;;;8.38;;
28170;SDS011;15458;53.346;-1.688;2023-05-13T04:10:10;10.60;;;8.40;;
28170;SDS011;15458;53.346;-1.688;2023-05-13T04:12:36;12.13;;;8.25;;
28170;SDS011;15458;53.346;-1.688;2023-05-13T04:15:05;12.35;;;8.43;;
28170;SDS011;15458;53.346;-1.688;2023-05-13T04:17:33;11.18;;;8.75;;
28170;SDS011;15458;53.346;-1.688;2023-05-13T04:20:02;10.30;;;7.88;;
28170;SDS011;15458;53.346;-1.688;2023-05-13T04:22:28;12.98;;;8.35;;
28170;SDS011;15458;53.346;-1.688;2023-05-13T04:24:56;11.35;;;8.30;;
28170;SDS011;15458;53.346;-1.688;2023-05-13T04:27:23;11.90;;;7.90;;
28170;SDS011;15458;53.346;-1.688;2023-05-13T04:29:50;12.20;;;8.48;;
28170;SDS011;15458;53.346;-1.688;2023-05-13T04:32:19;12.05;;;8.13;;
28170;SDS011;15458;53.346;-1.688;2023-05-13T04:34:48;13.88;;;8.13;;
28170;SDS011;15458;53.346;-1.688;2023-05-13T04:37:15;11.75;;;8.20;;
28170;SDS011;15458;53.346;-1.688;2023-05-13T04:39:45;13.63;;;8.48;;
28170;SDS011;15458;53.346;-1.688;2023-05-13T04:42:12;13.95;;;9.30;;
28170;SDS011;15458;53.346;-1.688;2023-05-13T04:44:40;11.55;;;8.27;;
28170;SDS011;15458;53.346;-1.688;2023-05-13T04:47:06;12.35;;;7.72;;
28170;SDS011;15458;53.346;-1.688;2023-05-13T04:49:32;11.48;;;8.13;;
28170;SDS011;15458;53.346;-1.688;2023-05-13T04:51:59;12.85;;;8.48;;
28170;SDS011;15458;53.346;-1.688;2023-05-13T04:54:26;12.02;;;9.02;;
28170;SDS011;15458;53.346;-1.688;2023-05-13T04:56:55;11.20;;;8.27;;
28170;SDS011;15458;53.346;-1.688;2023-05-13T04:59:22;12.25;;;8.38;;
28170;SDS011;15458;53.346;-1.688;2023-05-13T05:01:52;11.05;;;8.18;;
28170;SDS011;15458;53.346;-1.688;2023-05-13T05:04:19;12.23;;;8.20;;
28170;SDS011;15458;53.346;-1.688;2023-05-13T05:06:45;12.43;;;8.20;;
28170;SDS011;15458;53.346;-1.688;2023-05-13T05:09:11;11.85;;;7.63;;
28170;SDS011;15458;53.346;-1.688;2023-05-13T05:11:37;9.25;;;7.25;;
28170;SDS011;15458;53.346;-1.688;2023-05-13T05:14:03;13.63;;;8.15;;
28170;SDS011;15458;53.346;-1.688;2023-05-13T05:16:29;10.30;;;7.35;;
28170;SDS011;15458;53.346;-1.688;2023-05-13T05:18:55;13.38;;;7.97;;
28170;SDS011;15458;53.346;-1.688;2023-05-13T05:21:21;11.98;;;8.45;;
28170;SDS011;15458;53.346;-1.688;2023-05-13T05:23:47;13.65;;;8.27;;
28170;SDS011;15458;53.346;-1.688;2023-05-13T05:26:14;9.60;;;7.43;;
28170;SDS011;15458;53.346;-1.688;2023-05-13T05:28:41;14.20;;;8.52;;
28170;SDS011;15458;53.346;-1.688;2023-05-13T05:31:08;12.95;;;8.82;;
28170;SDS011;15458;53.346;-1.688;2023-05-13T05:36:27;13.55;;;7.65;;
28170;SDS011;15458;53.346;-1.688;2023-05-13T05:38:54;11.00;;;8.40;;
28170;SDS011;15458;53.346;-1.688;2023-05-13T05:41:20;12.18;;;8.75;;
28170;SDS011;15458;53.346;-1.688;2023-05-13T05:43:47;24.13;;;10.02;;
28170;SDS011;15458;53.346;-1.688;2023-05-13T05:46:13;11.35;;;7.97;;
28170;SDS011;15458;53.346;-1.688;2023-05-13T05:48:40;14.05;;;8.40;;
28170;SDS011;15458;53.346;-1.688;2023-05-13T05:51:10;15.02;;;8.55;;
28170;SDS011;15458;53.346;-1.688;2023-05-13T05:53:43;11.02;;;8.30;;
28170;SDS011;15458;53.346;-1.688;2023-05-13T05:56:18;9.70;;;7.60;;
28170;SDS011;15458;53.346;-1.688;2023-05-13T05:58:52;10.30;;;7.45;;
28170;SDS011;15458;53.346;-1.688;2023-05-13T06:01:23;10.90;;;7.93;;
28170;SDS011;15458;53.346;-1.688;2023-05-13T06:03:49;11.48;;;7.38;;
28170;SDS011;15458;53.346;-1.688;2023-05-13T06:06:17;13.20;;;7.40;;
28170;SDS011;15458;53.346;-1.688;2023-05-13T06:08:46;12.77;;;8.35;;
28170;SDS011;15458;53.346;-1.688;2023-05-13T06:11:15;10.88;;;7.18;;
28170;SDS011;15458;53.346;-1.688;2023-05-13T06:13:43;10.23;;;7.65;;
28170;SDS011;15458;53.346;-1.688;2023-05-13T06:16:09;10.93;;;7.55;;
28170;SDS011;15458;53.346;-1.688;2023-05-13T06:18:38;11.73;;;7.82;;
28170;SDS011;15458;53.346;-1.688;2023-05-13T06:21:05;10.43;;;7.25;;
28170;SDS011;15458;53.346;-1.688;2023-05-13T06:23:31;11.48;;;7.78;;
28170;SDS011;15458;53.346;-1.688;2023-05-13T06:25:57;13.38;;;7.68;;
28170;SDS011;15458;53.346;-1.688;2023-05-13T06:28:25;15.13;;;8.13;;
28170;SDS011;15458;53.346;-1.688;2023-05-13T06:30:54;9.32;;;6.85;;
28170;SDS011;15458;53.346;-1.688;2023-05-13T06:33:25;10.88;;;7.25;;
28170;SDS011;15458;53.346;-1.688;2023-05-13T06:35:51;10.20;;;6.32;;
28170;SDS011;15458;53.346;-1.688;2023-05-13T06:38:18;8.48;;;7.05;;
28170;SDS011;15458;53.346;-1.688;2023-05-13T06:40:44;9.77;;;7.50;;
28170;SDS011;15458;53.346;-1.688;2023-05-13T06:43:13;10.57;;;6.97;;
28170;SDS011;15458;53.346;-1.688;2023-05-13T06:45:45;9.77;;;6.78;;
28170;SDS011;15458;53.346;-1.688;2023-05-13T06:48:13;10.00;;;7.15;;
28170;SDS011;15458;53.346;-1.688;2023-05-13T06:50:40;9.65;;;7.43;;
28170;SDS011;15458;53.346;-1.688;2023-05-13T06:53:05;12.55;;;7.00;;
28170;SDS011;15458;53.346;-1.688;2023-05-13T06:55:35;8.07;;;6.67;;
28170;SDS011;15458;53.346;-1.688;2023-05-13T06:58:08;9.82;;;6.80;;
28170;SDS011;15458;53.346;-1.688;2023-05-13T07:00:38;10.43;;;6.88;;
28170;SDS011;15458;53.346;-1.688;2023-05-13T07:03:09;9.45;;;6.50;;
28170;SDS011;15458;53.346;-1.688;2023-05-13T07:05:42;9.80;;;7.05;;
28170;SDS011;15458;53.346;-1.688;2023-05-13T07:08:15;8.27;;;6.43;;
28170;SDS011;15458;53.346;-1.688;2023-05-13T07:10:44;11.45;;;7.20;;
28170;SDS011;15458;53.346;-1.688;2023-05-13T07:13:19;10.60;;;7.22;;
28170;SDS011;15458;53.346;-1.688;2023-05-13T07:15:46;11.20;;;7.45;;
28170;SDS011;15458;53.346;-1.688;2023-05-13T07:18:13;11.95;;;8.25;;
28170;SDS011;15458;53.346;-1.688;2023-05-13T07:20:42;11.10;;;7.00;;
28170;SDS011;15458;53.346;-1.688;2023-05-13T07:23:14;13.68;;;7.55;;
28170;SDS011;15458;53.346;-1.688;2023-05-13T07:25:51;12.18;;;8.48;;
28170;SDS011;15458;53.346;-1.688;2023-05-13T07:28:20;14.02;;;8.30;;
28170;SDS011;15458;53.346;-1.688;2023-05-13T07:30:49;15.30;;;7.47;;
28170;SDS011;15458;53.346;-1.688;2023-05-13T07:33:20;11.05;;;6.70;;
28170;SDS011;15458;53.346;-1.688;2023-05-13T07:35:47;9.88;;;6.55;;
28170;SDS011;15458;53.346;-1.688;2023-05-13T07:38:16;12.23;;;7.28;;
28170;SDS011;15458;53.346;-1.688;2023-05-13T07:40:58;11.55;;;7.82;;
28170;SDS011;15458;53.346;-1.688;2023-05-13T07:43:26;10.60;;;7.45;;
28170;SDS011;15458;53.346;-1.688;2023-05-13T07:45:53;13.20;;;7.97;;
28170;SDS011;15458;53.346;-1.688;2023-05-13T07:48:22;14.65;;;7.68;;
28170;SDS011;15458;53.346;-1.688;2023-05-13T07:50:58;10.48;;;7.55;;
28170;SDS011;15458;53.346;-1.688;2023-05-13T07:53:25;14.45;;;6.95;;
28170;SDS011;15458;53.346;-1.688;2023-05-13T07:55:53;11.07;;;7.50;;
28170;SDS011;15458;53.346;-1.688;2023-05-13T07:58:21;9.23;;;6.03;;
28170;SDS011;15458;53.346;-1.688;2023-05-13T08:00:47;11.30;;;7.28;;
28170;SDS011;15458;53.346;-1.688;2023-05-13T08:03:15;12.10;;;6.75;;
28170;SDS011;15458;53.346;-1.688;2023-05-13T08:05:42;11.18;;;6.53;;
28170;SDS011;15458;53.346;-1.688;2023-05-13T08:08:08;11.77;;;6.60;;
28170;SDS011;15458;53.346;-1.688;2023-05-13T08:10:35;10.63;;;6.82;;
28170;SDS011;15458;53.346;-1.688;2023-05-13T08:13:01;8.45;;;6.15;;
28170;SDS011;15458;53.346;-1.688;2023-05-13T08:15:27;10.68;;;6.75;;
28170;SDS011;15458;53.346;-1.688;2023-05-13T08:17:52;10.20;;;6.10;;
28170;SDS011;15458;53.346;-1.688;2023-05-13T08:20:19;8.20;;;6.10;;
28170;SDS011;15458;53.346;-1.688;2023-05-13T08:22:50;11.90;;;6.18;;
28170;SDS011;15458;53.346;-1.688;2023-05-13T08:25:17;9.35;;;5.72;;
28170;SDS011;15458;53.346;-1.688;2023-05-13T08:27:49;7.80;;;5.13;;
28170;SDS011;15458;53.346;-1.688;2023-05-13T08:30:15;8.15;;;5.55;;
28170;SDS011;15458;53.346;-1.688;2023-05-13T08:32:41;12.13;;;5.95;;
28170;SDS011;15458;53.346;-1.688;2023-05-13T08:35:07;8.90;;;5.18;;
28170;SDS011;15458;53.346;-1.688;2023-05-13T08:37:33;10.73;;;5.70;;
28170;SDS011;15458;53.346;-1.688;2023-05-13T08:40:01;8.85;;;5.43;;
28170;SDS011;15458;53.346;-1.688;2023-05-13T08:42:28;7.45;;;4.70;;
28170;SDS011;15458;53.346;-1.688;2023-05-13T08:44:57;6.38;;;4.68;;
28170;SDS011;15458;53.346;-1.688;2023-05-13T08:47:25;6.10;;;4.70;;
28170;SDS011;15458;53.346;-1.688;2023-05-13T08:50:11;7.97;;;4.72;;
28170;SDS011;15458;53.346;-1.688;2023-05-13T08:52:37;7.90;;;5.13;;
28170;SDS011;15458;53.346;-1.688;2023-05-13T08:55:04;5.45;;;4.70;;
28170;SDS011;15458;53.346;-1.688;2023-05-13T08:57:32;5.72;;;4.13;;
28170;SDS011;15458;53.346;-1.688;2023-05-13T08:59:58;9.85;;;5.28;;
28170;SDS011;15458;53.346;-1.688;2023-05-13T09:02:24;10.35;;;4.70;;
28170;SDS011;15458;53.346;-1.688;2023-05-13T09:04:51;5.97;;;4.60;;
28170;SDS011;15458;53.346;-1.688;2023-05-13T09:07:21;6.80;;;4.60;;
28170;SDS011;15458;53.346;-1.688;2023-05-13T09:15:35;6.47;;;4.32;;
28170;SDS011;15458;53.346;-1.688;2023-05-13T09:18:04;7.10;;;4.47;;
28170;SDS011;15458;53.346;-1.688;2023-05-13T09:25:45;6.47;;;4.38;;
28170;SDS011;15458;53.346;-1.688;2023-05-13T09:28:13;5.43;;;3.97;;
28170;SDS011;15458;53.346;-1.688;2023-05-13T09:30:39;8.85;;;4.28;;
28170;SDS011;15458;53.346;-1.688;2023-05-13T09:33:13;7.43;;;4.60;;
28170;SDS011;15458;53.346;-1.688;2023-05-13T09:35:50;7.50;;;3.97;;
28170;SDS011;15458;53.346;-1.688;2023-05-13T09:38:19;4.70;;;4.20;;
28170;SDS011;15458;53.346;-1.688;2023-05-13T09:43:22;5.15;;;4.03;;
28170;SDS011;15458;53.346;-1.688;2023-05-13T09:46:02;4.75;;;3.80;;
28170;SDS011;15458;53.346;-1.688;2023-05-13T09:48:32;5.07;;;3.45;;
28170;SDS011;15458;53.346;-1.688;2023-05-13T09:51:00;4.88;;;3.92;;
28170;SDS011;15458;53.346;-1.688;2023-05-13T09:53:30;4.40;;;3.42;;
28170;SDS011;15458;53.346;-1.688;2023-05-13T09:55:57;5.55;;;3.63;;
28170;SDS011;15458;53.346;-1.688;2023-05-13T10:01:34;8.87;;;4.13;;
28170;SDS011;15458;53.346;-1.688;2023-05-13T10:04:05;4.43;;;3.78;;
28170;SDS011;15458;53.346;-1.688;2023-05-13T10:06:36;6.13;;;3.70;;
28170;SDS011;15458;53.346;-1.688;2023-05-13T10:09:08;7.65;;;4.40;;
28170;SDS011;15458;53.346;-1.688;2023-05-13T10:14:31;5.78;;;4.20;;
28170;SDS011;15458;53.346;-1.688;2023-05-13T10:16:57;5.22;;;3.95;;
28170;SDS011;15458;53.346;-1.688;2023-05-13T10:19:25;6.25;;;3.70;;
28170;SDS011;15458;53.346;-1.688;2023-05-13T10:21:52;6.25;;;3.88;;
28170;SDS011;15458;53.346;-1.688;2023-05-13T10:24:18;4.50;;;3.70;;
28170;SDS011;15458;53.346;-1.688;2023-05-13T10:26:47;4.93;;;4.07;;
28170;SDS011;15458;53.346;-1.688;2023-05-13T10:29:18;9.50;;;3.65;;
28170;SDS011;15458;53.346;-1.688;2023-05-13T10:34:28;4.88;;;3.53;;
28170;SDS011;15458;53.346;-1.688;2023-05-13T11:07:36;4.75;;;3.40;;
28170;SDS011;15458;53.346;-1.688;2023-05-13T11:10:22;7.82;;;3.55;;
28170;SDS011;15458;53.346;-1.688;2023-05-13T11:13:06;5.45;;;4.43;;
28170;SDS011;15458;53.346;-1.688;2023-05-13T11:15:47;7.00;;;4.00;;
28170;SDS011;15458;53.346;-1.688;2023-05-13T11:26:51;5.60;;;3.90;;
28170;SDS011;15458;53.346;-1.688;2023-05-13T11:59:59;6.97;;;4.00;;
28170;SDS011;15458;53.346;-1.688;2023-05-13T12:02:34;4.93;;;4.05;;
28170;SDS011;15458;53.346;-1.688;2023-05-13T14:16:51;3.22;;;2.50;;
28170;SDS011;15458;53.346;-1.688;2023-05-13T14:50:04;2.85;;;2.38;;
28170;SDS011;15458;53.346;-1.688;2023-05-13T14:52:49;2.72;;;2.47;;
28170;SDS011;15458;53.346;-1.688;2023-05-13T14:56:14;3.55;;;2.80;;
28170;SDS011;15458;53.346;-1.688;2023-05-13T14:59:02;4.75;;;3.00;;
28170;SDS011;15458;53.346;-1.688;2023-05-13T15:40:02;6.53;;;5.05;;
28170;SDS011;15458;53.346;-1.688;2023-05-13T15:45:03;10.15;;;5.32;;
28170;SDS011;15458;53.346;-1.688;2023-05-13T15:47:36;6.28;;;5.13;;
28170;SDS011;15458;53.346;-1.688;2023-05-13T15:50:02;6.32;;;4.97;;
28170;SDS011;15458;53.346;-1.688;2023-05-13T15:52:30;7.13;;;4.78;;
28170;SDS011;15458;53.346;-1.688;2023-05-13T15:54:59;8.20;;;5.03;;
28170;SDS011;15458;53.346;-1.688;2023-05-13T15:57:25;6.82;;;4.70;;
28170;SDS011;15458;53.346;-1.688;2023-05-13T15:59:52;6.90;;;5.22;;
28170;SDS011;15458;53.346;-1.688;2023-05-13T16:02:18;7.50;;;4.55;;
28170;SDS011;15458;53.346;-1.688;2023-05-13T16:04:45;9.52;;;6.82;;
28170;SDS011;15458;53.346;-1.688;2023-05-13T16:07:11;9.48;;;7.80;;
28170;SDS011;15458;53.346;-1.688;2023-05-13T16:09:40;15.63;;;8.55;;
28170;SDS011;15458;53.346;-1.688;2023-05-13T16:12:09;9.02;;;6.05;;
28170;SDS011;15458;53.346;-1.688;2023-05-13T16:14:58;9.48;;;5.60;;
28170;SDS011;15458;53.346;-1.688;2023-05-13T16:17:25;33.53;;;14.15;;
28170;SDS011;15458;53.346;-1.688;2023-05-13T16:19:52;10.57;;;6.55;;
28170;SDS011;15458;53.346;-1.688;2023-05-13T16:22:31;52.40;;;21.20;;
28170;SDS011;15458;53.346;-1.688;2023-05-13T16:25:03;11.98;;;6.53;;
28170;SDS011;15458;53.346;-1.688;2023-05-13T16:27:36;10.77;;;4.97;;
28170;SDS011;15458;53.346;-1.688;2023-05-13T16:30:03;7.38;;;5.65;;
28170;SDS011;15458;53.346;-1.688;2023-05-13T16:32:35;60.67;;;22.05;;
28170;SDS011;15458;53.346;-1.688;2023-05-13T16:35:12;9.30;;;6.53;;
28170;SDS011;15458;53.346;-1.688;2023-05-13T16:37:41;16.05;;;9.45;;
28170;SDS011;15458;53.346;-1.688;2023-05-13T16:40:09;25.13;;;12.57;;
28170;SDS011;15458;53.346;-1.688;2023-05-13T16:42:39;29.77;;;11.50;;
28170;SDS011;15458;53.346;-1.688;2023-05-13T16:45:10;64.68;;;19.50;;
28170;SDS011;15458;53.346;-1.688;2023-05-13T16:47:36;8.02;;;5.25;;
28170;SDS011;15458;53.346;-1.688;2023-05-13T16:50:02;18.88;;;9.25;;
28170;SDS011;15458;53.346;-1.688;2023-05-13T16:52:32;6.68;;;5.20;;
28170;SDS011;15458;53.346;-1.688;2023-05-13T16:54:59;8.80;;;5.20;;
28170;SDS011;15458;53.346;-1.688;2023-05-13T16:57:25;6.20;;;4.78;;
28170;SDS011;15458;53.346;-1.688;2023-05-13T16:59:51;6.32;;;4.97;;
28170;SDS011;15458;53.346;-1.688;2023-05-13T17:02:26;8.60;;;5.18;;
28170;SDS011;15458;53.346;-1.688;2023-05-13T17:04:52;7.93;;;5.65;;
28170;SDS011;15458;53.346;-1.688;2023-05-13T17:07:18;7.60;;;5.38;;
28170;SDS011;15458;53.346;-1.688;2023-05-13T17:09:44;9.35;;;5.47;;
28170;SDS011;15458;53.346;-1.688;2023-05-13T17:12:10;8.35;;;6.15;;
28170;SDS011;15458;53.346;-1.688;2023-05-13T17:14:39;7.57;;;5.05;;
28170;SDS011;15458;53.346;-1.688;2023-05-13T17:17:09;7.85;;;5.13;;
28170;SDS011;15458;53.346;-1.688;2023-05-13T17:19:35;7.97;;;5.63;;
28170;SDS011;15458;53.346;-1.688;2023-05-13T17:22:00;6.95;;;5.10;;
28170;SDS011;15458;53.346;-1.688;2023-05-13T17:24:26;6.03;;;4.72;;
28170;SDS011;15458;53.346;-1.688;2023-05-13T17:26:58;5.80;;;4.30;;
28170;SDS011;15458;53.346;-1.688;2023-05-13T17:29:24;5.72;;;5.00;;
28170;SDS011;15458;53.346;-1.688;2023-05-13T17:31:50;7.47;;;5.28;;
28170;SDS011;15458;53.346;-1.688;2023-05-13T17:34:17;5.90;;;4.93;;
28170;SDS011;15458;53.346;-1.688;2023-05-13T17:36:47;9.13;;;5.90;;
28170;SDS011;15458;53.346;-1.688;2023-05-13T17:39:15;6.55;;;5.22;;
28170;SDS011;15458;53.346;-1.688;2023-05-13T17:41:41;7.30;;;4.97;;
28170;SDS011;15458;53.346;-1.688;2023-05-13T17:44:14;4.70;;;3.88;;
28170;SDS011;15458;53.346;-1.688;2023-05-13T17:46:44;7.20;;;5.20;;
28170;SDS011;15458;53.346;-1.688;2023-05-13T17:49:12;5.53;;;3.33;;
28170;SDS011;15458;53.346;-1.688;2023-05-13T17:51:38;6.03;;;4.70;;
28170;SDS011;15458;53.346;-1.688;2023-05-13T17:54:06;5.95;;;5.03;;
28170;SDS011;15458;53.346;-1.688;2023-05-13T17:56:33;5.25;;;4.75;;
28170;SDS011;15458;53.346;-1.688;2023-05-13T17:59:00;8.40;;;4.90;;
28170;SDS011;15458;53.346;-1.688;2023-05-13T18:01:29;6.90;;;5.40;;
28170;SDS011;15458;53.346;-1.688;2023-05-13T18:03:56;8.07;;;5.68;;
28170;SDS011;15458;53.346;-1.688;2023-05-13T18:06:50;5.20;;;4.63;;
28170;SDS011;15458;53.346;-1.688;2023-05-13T18:09:21;8.45;;;5.78;;
28170;SDS011;15458;53.346;-1.688;2023-05-13T18:11:57;6.13;;;5.47;;
28170;SDS011;15458;53.346;-1.688;2023-05-13T18:17:41;7.45;;;5.10;;
28170;SDS011;15458;53.346;-1.688;2023-05-13T18:20:10;9.68;;;6.15;;
28170;SDS011;15458;53.346;-1.688;2023-05-13T18:22:38;7.90;;;5.60;;
28170;SDS011;15458;53.346;-1.688;2023-05-13T18:25:04;7.78;;;6.50;;
28170;SDS011;15458;53.346;-1.688;2023-05-13T18:27:31;7.63;;;6.35;;
28170;SDS011;15458;53.346;-1.688;2023-05-13T18:29:57;7.68;;;5.85;;
28170;SDS011;15458;53.346;-1.688;2023-05-13T18:32:22;9.80;;;6.18;;
28170;SDS011;15458;53.346;-1.688;2023-05-13T19:01:02;7.47;;;5.60;;
28170;SDS011;15458;53.346;-1.688;2023-05-13T19:03:31;8.55;;;5.95;;
28170;SDS011;15458;53.346;-1.688;2023-05-13T19:06:03;10.02;;;6.55;;
28170;SDS011;15458;53.346;-1.688;2023-05-13T19:08:29;8.90;;;6.03;;
28170;SDS011;15458;53.346;-1.688;2023-05-13T19:10:56;10.75;;;5.93;;
28170;SDS011;15458;53.346;-1.688;2023-05-13T19:13:25;7.40;;;5.53;;
28170;SDS011;15458;53.346;-1.688;2023-05-13T19:15:51;8.82;;;6.30;;
28170;SDS011;15458;53.346;-1.688;2023-05-13T19:19:01;7.28;;;6.57;;
28170;SDS011;15458;53.346;-1.688;2023-05-13T19:21:29;6.97;;;5.80;;
28170;SDS011;15458;53.346;-1.688;2023-05-13T19:23:57;10.52;;;5.93;;
28170;SDS011;15458;53.346;-1.688;2023-05-13T19:26:33;12.48;;;6.80;;
28170;SDS011;15458;53.346;-1.688;2023-05-13T19:29:09;7.90;;;6.03;;
28170;SDS011;15458;53.346;-1.688;2023-05-13T19:31:35;9.82;;;6.40;;
28170;SDS011;15458;53.346;-1.688;2023-05-13T19:34:03;9.52;;;6.72;;
28170;SDS011;15458;53.346;-1.688;2023-05-13T19:36:35;8.43;;;6.55;;
28170;SDS011;15458;53.346;-1.688;2023-05-13T19:39:06;9.18;;;6.03;;
28170;SDS011;15458;53.346;-1.688;2023-05-13T19:41:32;8.88;;;5.95;;
28170;SDS011;15458;53.346;-1.688;2023-05-13T19:44:04;9.02;;;6.40;;
28170;SDS011;15458;53.346;-1.688;2023-05-13T19:46:31;10.00;;;6.50;;
28170;SDS011;15458;53.346;-1.688;2023-05-13T19:48:58;7.60;;;6.25;;
28170;SDS011;15458;53.346;-1.688;2023-05-13T19:51:24;9.55;;;6.50;;
28170;SDS011;15458;53.346;-1.688;2023-05-13T19:53:50;8.55;;;6.57;;
28170;SDS011;15458;53.346;-1.688;2023-05-13T19:56:16;7.88;;;6.20;;
28170;SDS011;15458;53.346;-1.688;2023-05-13T19:58:46;10.45;;;6.15;;
28170;SDS011;15458;53.346;-1.688;2023-05-13T20:01:20;10.80;;;6.40;;
28170;SDS011;15458;53.346;-1.688;2023-05-13T20:07:55;9.48;;;5.95;;
28170;SDS011;15458;53.346;-1.688;2023-05-13T20:11:08;9.85;;;5.90;;
28170;SDS011;15458;53.346;-1.688;2023-05-13T20:13:50;8.18;;;6.45;;
28170;SDS011;15458;53.346;-1.688;2023-05-13T20:16:35;8.98;;;6.95;;
28170;SDS011;15458;53.346;-1.688;2023-05-13T20:19:07;9.30;;;6.40;;
28170;SDS011;15458;53.346;-1.688;2023-05-13T20:22:12;10.27;;;6.28;;
28170;SDS011;15458;53.346;-1.688;2023-05-13T20:28:06;11.13;;;6.28;;